sensor_id;sensor_type;location;lat;lon;timestamp;P1;durP1;ratioP1;P2;durP2;ratioP2
15151;SDS011;7676;50.900;6.234;2022-09-03T00:03:48;6.57;;;1.73;;
15151;SDS011;7676;50.900;6.234;2022-09-03T00:08:57;5.73;;;1.60;;
15151;SDS011;7676;50.900;6.234;2022-09-03T00:14:11;4.67;;;1.67;;
15151;SDS011;7676;50.900;6.234;2022-09-03T00:19:24;3.60;;;1.53;;
15151;SDS011;7676;50.900;6.234;2022-09-03T00:24:32;1.73;;;1.57;;
15151;SDS011;7676;50.900;6.234;2022-09-03T00:29:42;4.33;;;1.63;;
15151;SDS011;7676;50.900;6.234;2022-09-03T00:35:04;3.87;;;1.70;;
15151;SDS011;7676;50.900;6.234;2022-09-03T00:40:13;3.63;;;1.30;;
15151;SDS011;7676;50.900;6.234;2022-09-03T00:51:15;2.27;;;1.40;;
15151;SDS011;7676;50.900;6.234;2022-09-03T00:57:02;4.97;;;1.53;;
15151;SDS011;7676;50.900;6.234;2022-09-03T01:02:06;3.67;;;1.50;;
15151;SDS011;7676;50.900;6.234;2022-09-03T01:07:47;2.97;;;1.40;;
15151;SDS011;7676;50.900;6.234;2022-09-03T01:18:34;6.27;;;1.60;;
15151;SDS011;7676;50.900;6.234;2022-09-03T01:29:13;3.40;;;1.50;;
15151;SDS011;7676;50.900;6.234;2022-09-03T01:45:18;6.37;;;1.63;;
15151;SDS011;7676;50.900;6.234;2022-09-03T02:01:12;6.17;;;1.53;;
15151;SDS011;7676;50.900;6.234;2022-09-03T02:06:36;2.87;;;1.60;;
15151;SDS011;7676;50.900;6.234;2022-09-03T02:11:40;3.97;;;1.87;;
15151;SDS011;7676;50.900;6.234;2022-09-03T02:16:44;4.27;;;1.43;;
15151;SDS011;7676;50.900;6.234;2022-09-03T02:21:51;4.03;;;1.30;;
15151;SDS011;7676;50.900;6.234;2022-09-03T02:26:56;1.70;;;1.33;;
15151;SDS011;7676;50.900;6.234;2022-09-03T02:31:58;2.70;;;1.60;;
15151;SDS011;7676;50.900;6.234;2022-09-03T02:37:10;3.50;;;1.50;;
15151;SDS011;7676;50.900;6.234;2022-09-03T02:42:14;1.83;;;1.47;;
15151;SDS011;7676;50.900;6.234;2022-09-03T02:47:18;3.20;;;1.63;;
15151;SDS011;7676;50.900;6.234;2022-09-03T02:52:21;4.50;;;1.53;;
15151;SDS011;7676;50.900;6.234;2022-09-03T02:57:24;2.50;;;1.50;;
15151;SDS011;7676;50.900;6.234;2022-09-03T03:02:28;2.50;;;1.50;;
15151;SDS011;7676;50.900;6.234;2022-09-03T03:07:31;2.00;;;1.40;;
15151;SDS011;7676;50.900;6.234;2022-09-03T03:12:37;1.73;;;1.20;;
15151;SDS011;7676;50.900;6.234;2022-09-03T03:17:40;5.93;;;1.53;;
15151;SDS011;7676;50.900;6.234;2022-09-03T03:22:42;2.20;;;1.10;;
15151;SDS011;7676;50.900;6.234;2022-09-03T03:27:45;2.57;;;1.53;;
15151;SDS011;7676;50.900;6.234;2022-09-03T03:32:48;3.50;;;1.60;;
15151;SDS011;7676;50.900;6.234;2022-09-03T03:37:50;2.97;;;1.77;;
15151;SDS011;7676;50.900;6.234;2022-09-03T03:42:53;2.37;;;1.63;;
15151;SDS011;7676;50.900;6.234;2022-09-03T03:47:58;2.53;;;1.50;;
15151;SDS011;7676;50.900;6.234;2022-09-03T03:53:00;1.40;;;1.30;;
15151;SDS011;7676;50.900;6.234;2022-09-03T03:58:03;3.20;;;1.40;;
15151;SDS011;7676;50.900;6.234;2022-09-03T04:03:06;2.80;;;1.33;;
15151;SDS011;7676;50.900;6.234;2022-09-03T04:08:08;3.37;;;1.30;;
15151;SDS011;7676;50.900;6.234;2022-09-03T04:13:11;2.70;;;1.47;;
15151;SDS011;7676;50.900;6.234;2022-09-03T04:18:13;2.63;;;1.20;;
15151;SDS011;7676;50.900;6.234;2022-09-03T04:23:16;1.63;;;1.50;;
15151;SDS011;7676;50.900;6.234;2022-09-03T04:28:18;3.37;;;1.53;;
15151;SDS011;7676;50.900;6.234;2022-09-03T04:33:23;2.27;;;1.40;;
15151;SDS011;7676;50.900;6.234;2022-09-03T04:38:27;2.60;;;1.40;;
15151;SDS011;7676;50.900;6.234;2022-09-03T04:43:31;3.50;;;1.40;;
15151;SDS011;7676;50.900;6.234;2022-09-03T04:48:34;3.20;;;1.23;;
15151;SDS011;7676;50.900;6.234;2022-09-03T04:53:39;4.07;;;1.60;;
15151;SDS011;7676;50.900;6.234;2022-09-03T04:58:43;3.60;;;1.33;;
15151;SDS011;7676;50.900;6.234;2022-09-03T05:03:50;3.13;;;1.40;;
15151;SDS011;7676;50.900;6.234;2022-09-03T05:08:55;3.50;;;1.40;;
15151;SDS011;7676;50.900;6.234;2022-09-03T05:13:58;2.83;;;1.30;;
15151;SDS011;7676;50.900;6.234;2022-09-03T05:19:02;2.83;;;1.43;;
15151;SDS011;7676;50.900;6.234;2022-09-03T05:24:07;6.03;;;1.50;;
15151;SDS011;7676;50.900;6.234;2022-09-03T05:29:10;1.90;;;1.10;;
15151;SDS011;7676;50.900;6.234;2022-09-03T05:34:12;2.23;;;1.10;;
15151;SDS011;7676;50.900;6.234;2022-09-03T05:39:19;2.27;;;1.30;;
15151;SDS011;7676;50.900;6.234;2022-09-03T05:44:21;2.03;;;1.27;;
15151;SDS011;7676;50.900;6.234;2022-09-03T05:49:24;1.43;;;1.30;;
15151;SDS011;7676;50.900;6.234;2022-09-03T05:54:30;2.30;;;1.40;;
15151;SDS011;7676;50.900;6.234;2022-09-03T05:59:32;3.23;;;1.13;;
15151;SDS011;7676;50.900;6.234;2022-09-03T06:04:35;2.90;;;1.30;;
15151;SDS011;7676;50.900;6.234;2022-09-03T06:09:38;2.93;;;1.13;;
15151;SDS011;7676;50.900;6.234;2022-09-03T06:14:41;1.97;;;1.40;;
15151;SDS011;7676;50.900;6.234;2022-09-03T06:19:44;1.83;;;1.03;;
15151;SDS011;7676;50.900;6.234;2022-09-03T06:24:47;2.27;;;1.30;;
15151;SDS011;7676;50.900;6.234;2022-09-03T06:29:49;4.87;;;1.40;;
15151;SDS011;7676;50.900;6.234;2022-09-03T06:34:52;3.33;;;1.40;;
15151;SDS011;7676;50.900;6.234;2022-09-03T06:39:54;5.07;;;1.70;;
15151;SDS011;7676;50.900;6.234;2022-09-03T06:44:56;2.07;;;1.30;;
15151;SDS011;7676;50.900;6.234;2022-09-03T06:49:59;3.47;;;1.40;;
15151;SDS011;7676;50.900;6.234;2022-09-03T06:55:03;2.57;;;1.20;;
15151;SDS011;7676;50.900;6.234;2022-09-03T07:00:06;3.67;;;1.20;;
15151;SDS011;7676;50.900;6.234;2022-09-03T07:05:12;2.80;;;1.10;;
15151;SDS011;7676;50.900;6.234;2022-09-03T07:10:15;2.40;;;1.10;;
15151;SDS011;7676;50.900;6.234;2022-09-03T07:15:21;2.03;;;1.20;;
15151;SDS011;7676;50.900;6.234;2022-09-03T07:20:23;2.70;;;1.43;;
15151;SDS011;7676;50.900;6.234;2022-09-03T07:25:26;2.27;;;1.30;;
15151;SDS011;7676;50.900;6.234;2022-09-03T07:30:29;2.03;;;1.30;;
15151;SDS011;7676;50.900;6.234;2022-09-03T07:35:35;4.60;;;1.30;;
15151;SDS011;7676;50.900;6.234;2022-09-03T07:40:37;4.93;;;1.50;;
15151;SDS011;7676;50.900;6.234;2022-09-03T07:45:40;2.57;;;1.43;;
15151;SDS011;7676;50.900;6.234;2022-09-03T07:50:42;3.07;;;1.30;;
15151;SDS011;7676;50.900;6.234;2022-09-03T07:55:45;3.63;;;1.40;;
15151;SDS011;7676;50.900;6.234;2022-09-03T08:00:49;3.33;;;1.50;;
15151;SDS011;7676;50.900;6.234;2022-09-03T08:05:52;2.03;;;1.37;;
15151;SDS011;7676;50.900;6.234;2022-09-03T08:10:54;2.37;;;1.23;;
15151;SDS011;7676;50.900;6.234;2022-09-03T08:15:59;5.77;;;1.40;;
15151;SDS011;7676;50.900;6.234;2022-09-03T08:21:12;4.70;;;1.70;;
15151;SDS011;7676;50.900;6.234;2022-09-03T08:26:17;1.70;;;1.17;;
15151;SDS011;7676;50.900;6.234;2022-09-03T08:31:21;3.40;;;1.57;;
15151;SDS011;7676;50.900;6.234;2022-09-03T08:36:26;3.00;;;1.40;;
15151;SDS011;7676;50.900;6.234;2022-09-03T08:47:01;2.37;;;1.30;;
15151;SDS011;7676;50.900;6.234;2022-09-03T08:52:20;3.10;;;1.27;;
15151;SDS011;7676;50.900;6.234;2022-09-03T08:57:30;3.83;;;1.67;;
15151;SDS011;7676;50.900;6.234;2022-09-03T09:02:47;2.53;;;1.40;;
15151;SDS011;7676;50.900;6.234;2022-09-03T09:07:53;1.90;;;1.30;;
15151;SDS011;7676;50.900;6.234;2022-09-03T09:13:15;1.73;;;1.20;;
15151;SDS011;7676;50.900;6.234;2022-09-03T09:18:45;2.23;;;1.50;;
15151;SDS011;7676;50.900;6.234;2022-09-03T09:24:23;4.20;;;1.50;;
15151;SDS011;7676;50.900;6.234;2022-09-03T09:29:28;3.50;;;1.40;;
15151;SDS011;7676;50.900;6.234;2022-09-03T09:34:34;3.87;;;2.53;;
15151;SDS011;7676;50.900;6.234;2022-09-03T09:39:38;2.37;;;1.60;;
15151;SDS011;7676;50.900;6.234;2022-09-03T09:44:42;4.17;;;1.60;;
15151;SDS011;7676;50.900;6.234;2022-09-03T09:54:47;3.43;;;1.87;;
15151;SDS011;7676;50.900;6.234;2022-09-03T10:00:11;3.57;;;1.70;;
15151;SDS011;7676;50.900;6.234;2022-09-03T10:05:21;5.20;;;4.70;;
15151;SDS011;7676;50.900;6.234;2022-09-03T10:10:26;4.10;;;2.20;;
15151;SDS011;7676;50.900;6.234;2022-09-03T10:52:58;2.97;;;1.80;;
15151;SDS011;7676;50.900;6.234;2022-09-03T11:03:52;2.17;;;1.60;;
15151;SDS011;7676;50.900;6.234;2022-09-03T11:14:36;1.90;;;1.57;;
15151;SDS011;7676;50.900;6.234;2022-09-03T11:19:49;2.93;;;1.97;;
15151;SDS011;7676;50.900;6.234;2022-09-03T11:24:57;4.17;;;2.33;;
15151;SDS011;7676;50.900;6.234;2022-09-03T11:30:04;3.63;;;2.20;;
15151;SDS011;7676;50.900;6.234;2022-09-03T11:35:13;2.10;;;1.90;;
15151;SDS011;7676;50.900;6.234;2022-09-03T11:40:37;2.80;;;1.80;;
15151;SDS011;7676;50.900;6.234;2022-09-03T11:45:43;2.53;;;1.97;;
15151;SDS011;7676;50.900;6.234;2022-09-03T11:50:52;3.70;;;2.10;;
15151;SDS011;7676;50.900;6.234;2022-09-03T12:01:09;2.20;;;1.90;;
15151;SDS011;7676;50.900;6.234;2022-09-03T12:11:36;3.10;;;1.90;;
15151;SDS011;7676;50.900;6.234;2022-09-03T12:22:28;2.93;;;1.90;;
15151;SDS011;7676;50.900;6.234;2022-09-03T12:27:42;2.67;;;1.90;;
15151;SDS011;7676;50.900;6.234;2022-09-03T12:33:01;2.53;;;1.90;;
15151;SDS011;7676;50.900;6.234;2022-09-03T12:38:07;6.17;;;2.03;;
15151;SDS011;7676;50.900;6.234;2022-09-03T12:43:25;2.90;;;2.17;;
15151;SDS011;7676;50.900;6.234;2022-09-03T12:48:52;2.57;;;2.30;;
15151;SDS011;7676;50.900;6.234;2022-09-03T12:54:26;2.43;;;2.20;;
15151;SDS011;7676;50.900;6.234;2022-09-03T12:59:30;4.40;;;1.90;;
15151;SDS011;7676;50.900;6.234;2022-09-03T13:04:35;5.07;;;2.10;;
15151;SDS011;7676;50.900;6.234;2022-09-03T13:09:41;3.13;;;2.10;;
15151;SDS011;7676;50.900;6.234;2022-09-03T13:14:44;2.50;;;2.10;;
15151;SDS011;7676;50.900;6.234;2022-09-03T13:51:50;3.13;;;2.10;;
15151;SDS011;7676;50.900;6.234;2022-09-03T13:57:01;3.80;;;2.00;;
15151;SDS011;7676;50.900;6.234;2022-09-03T14:08:04;2.90;;;2.00;;
15151;SDS011;7676;50.900;6.234;2022-09-03T14:19:13;3.33;;;2.10;;
15151;SDS011;7676;50.900;6.234;2022-09-03T14:29:59;3.70;;;1.87;;
15151;SDS011;7676;50.900;6.234;2022-09-03T14:45:25;4.97;;;2.40;;
15151;SDS011;7676;50.900;6.234;2022-09-03T15:07:52;4.67;;;2.20;;
15151;SDS011;7676;50.900;6.234;2022-09-03T15:13:21;9.17;;;3.10;;
15151;SDS011;7676;50.900;6.234;2022-09-03T15:18:51;3.17;;;2.17;;
15151;SDS011;7676;50.900;6.234;2022-09-03T15:29:44;2.87;;;2.20;;
15151;SDS011;7676;50.900;6.234;2022-09-03T15:40:27;4.50;;;2.70;;
15151;SDS011;7676;50.900;6.234;2022-09-03T15:45:54;3.00;;;2.20;;
15151;SDS011;7676;50.900;6.234;2022-09-03T15:51:09;3.07;;;2.47;;
15151;SDS011;7676;50.900;6.234;2022-09-03T15:56:37;3.37;;;2.60;;
15151;SDS011;7676;50.900;6.234;2022-09-03T16:01:55;4.50;;;2.47;;
15151;SDS011;7676;50.900;6.234;2022-09-03T16:07:25;3.17;;;2.60;;
15151;SDS011;7676;50.900;6.234;2022-09-03T16:29:13;3.03;;;2.60;;
15151;SDS011;7676;50.900;6.234;2022-09-03T16:39:48;3.40;;;2.73;;
15151;SDS011;7676;50.900;6.234;2022-09-03T16:45:02;2.67;;;2.20;;
15151;SDS011;7676;50.900;6.234;2022-09-03T17:23:05;3.17;;;2.13;;
15151;SDS011;7676;50.900;6.234;2022-09-03T17:28:53;1.90;;;1.70;;
15151;SDS011;7676;50.900;6.234;2022-09-03T17:44:49;2.63;;;1.90;;
15151;SDS011;7676;50.900;6.234;2022-09-03T17:50:17;1.97;;;1.80;;
15151;SDS011;7676;50.900;6.234;2022-09-03T17:55:41;3.03;;;2.23;;
15151;SDS011;7676;50.900;6.234;2022-09-03T18:01:18;3.93;;;2.03;;
15151;SDS011;7676;50.900;6.234;2022-09-03T18:11:49;2.60;;;2.00;;
15151;SDS011;7676;50.900;6.234;2022-09-03T18:22:06;2.43;;;2.00;;
15151;SDS011;7676;50.900;6.234;2022-09-03T18:33:10;2.50;;;2.30;;
15151;SDS011;7676;50.900;6.234;2022-09-03T18:38:33;2.67;;;2.47;;
15151;SDS011;7676;50.900;6.234;2022-09-03T18:49:38;2.43;;;2.23;;
15151;SDS011;7676;50.900;6.234;2022-09-03T19:00:44;2.93;;;2.50;;
15151;SDS011;7676;50.900;6.234;2022-09-03T19:06:22;2.33;;;2.17;;
15151;SDS011;7676;50.900;6.234;2022-09-03T19:23:29;2.30;;;2.10;;
15151;SDS011;7676;50.900;6.234;2022-09-03T19:28:58;2.53;;;2.33;;
15151;SDS011;7676;50.900;6.234;2022-09-03T19:34:31;2.40;;;2.20;;
15151;SDS011;7676;50.900;6.234;2022-09-03T19:40:15;2.70;;;2.50;;
15151;SDS011;7676;50.900;6.234;2022-09-03T19:51:29;2.57;;;2.37;;
15151;SDS011;7676;50.900;6.234;2022-09-03T19:56:56;2.70;;;2.47;;
15151;SDS011;7676;50.900;6.234;2022-09-03T20:02:18;1.83;;;1.73;;
15151;SDS011;7676;50.900;6.234;2022-09-03T20:07:40;2.33;;;2.13;;
15151;SDS011;7676;50.900;6.234;2022-09-03T20:13:06;1.83;;;1.73;;
15151;SDS011;7676;50.900;6.234;2022-09-03T20:18:16;2.13;;;2.03;;
15151;SDS011;7676;50.900;6.234;2022-09-03T20:23:42;2.30;;;2.10;;
15151;SDS011;7676;50.900;6.234;2022-09-03T20:40:11;1.97;;;1.87;;
15151;SDS011;7676;50.900;6.234;2022-09-03T20:50:47;2.23;;;1.93;;
15151;SDS011;7676;50.900;6.234;2022-09-03T20:56:19;2.30;;;2.10;;
15151;SDS011;7676;50.900;6.234;2022-09-03T21:07:18;2.83;;;2.30;;
15151;SDS011;7676;50.900;6.234;2022-09-03T21:23:47;2.00;;;1.80;;
15151;SDS011;7676;50.900;6.234;2022-09-03T21:34:24;2.53;;;2.20;;
15151;SDS011;7676;50.900;6.234;2022-09-03T21:39:35;2.33;;;2.13;;
15151;SDS011;7676;50.900;6.234;2022-09-03T21:45:05;2.30;;;2.10;;
15151;SDS011;7676;50.900;6.234;2022-09-03T21:50:34;2.87;;;2.10;;
15151;SDS011;7676;50.900;6.234;2022-09-03T22:00:58;2.57;;;2.10;;
15151;SDS011;7676;50.900;6.234;2022-09-03T22:06:11;2.20;;;2.00;;
15151;SDS011;7676;50.900;6.234;2022-09-03T22:11:27;2.97;;;2.10;;
15151;SDS011;7676;50.900;6.234;2022-09-03T22:16:44;3.30;;;2.40;;
15151;SDS011;7676;50.900;6.234;2022-09-03T22:21:56;2.70;;;2.50;;
15151;SDS011;7676;50.900;6.234;2022-09-03T22:27:03;2.77;;;2.57;;
15151;SDS011;7676;50.900;6.234;2022-09-03T22:44:12;2.23;;;2.13;;
15151;SDS011;7676;50.900;6.234;2022-09-03T22:49:48;2.03;;;1.93;;
15151;SDS011;7676;50.900;6.234;2022-09-03T23:00:26;1.93;;;1.83;;
15151;SDS011;7676;50.900;6.234;2022-09-03T23:05:47;4.00;;;3.03;;
15151;SDS011;7676;50.900;6.234;2022-09-03T23:11:01;2.83;;;2.37;;
15151;SDS011;7676;50.900;6.234;2022-09-03T23:16:28;2.00;;;1.90;;
15151;SDS011;7676;50.900;6.234;2022-09-03T23:21:38;2.13;;;1.93;;
15151;SDS011;7676;50.900;6.234;2022-09-03T23:26:47;1.80;;;1.70;;
15151;SDS011;7676;50.900;6.234;2022-09-03T23:31:56;2.07;;;1.87;;
